This is the latest recevied weather packets stored in our database for station/object KF7U. If no packets are shown the sender has not sent any weather packets the latest 10 day(s).
| Time | Temp. | Humidity | Pressure | Rain* | Wind** | Luminosity | Snow |
|---|---|---|---|---|---|---|---|
| 1778077055 | 17.22° C | 46% | 1014.2 hPa | 0 mm | - | 206 W/m² | - |
| 1778076756 | 16.67° C | 47% | 1014.2 hPa | 0 mm | - | 129 W/m² | - |
| 1778076455 | 16.11° C | 49% | 1014.2 hPa | 0 mm | - | 98 W/m² | - |
| 1778076155 | 16.11° C | 51% | 1014.2 hPa | 0 mm | - | 72 W/m² | - |
| 1778075855 | 15° C | 55% | 1014.2 hPa | 0 mm | - | 92 W/m² | - |
| 1778075555 | 14.44° C | 59% | 1014.2 hPa | 0 mm | - | 84 W/m² | - |
| 1778075255 | 13.89° C | 65% | 1013.9 hPa | 0 mm | - | 70 W/m² | - |
| 1778074955 | 12.78° C | 71% | 1013.9 hPa | 0 mm | - | 63 W/m² | - |
| 1778074655 | 12.22° C | 73% | 1013.9 hPa | 0 mm | - | 70 W/m² | - |
| 1778074354 | 12.22° C | 74% | 1013.9 hPa | 0 mm | - | 59 W/m² | - |
| 1778074056 | 11.67° C | 75% | 1013.9 hPa | 0 mm | - | 51 W/m² | - |
| 1778073754 | 11.67° C | 76% | 1013.9 hPa | 0 mm | - | 47 W/m² | - |
| 1778073455 | 11.67° C | 76% | 1013.9 hPa | 0 mm | - | 43 W/m² | - |
| 1778073155 | 11.11° C | 76% | 1013.5 hPa | 0 mm | - | 48 W/m² | - |
| 1778072855 | 11.11° C | 75% | 1013.5 hPa | 0 mm | - | 43 W/m² | - |
| 1778072555 | 11.11° C | 74% | 1013.5 hPa | 0 mm | - | 37 W/m² | - |
| 1778072255 | 11.11° C | 75% | 1013.5 hPa | 0 mm | - | 32 W/m² | - |
| 1778071955 | 11.11° C | 75% | 1013.5 hPa | 0 mm | - | 27 W/m² | - |
| 1778071655 | 11.11° C | 74% | 1013.2 hPa | 0 mm | - | 21 W/m² | - |
| 1778071354 | 11.11° C | 74% | 1013.2 hPa | 0 mm | - | 16 W/m² | - |
| 1778071054 | 11.11° C | 74% | 1013.2 hPa | 0 mm | - | 10 W/m² | - |
| 1778070757 | 11.11° C | 74% | 1013.2 hPa | 0 mm | - | 6 W/m² | - |
| 1778070455 | 11.11° C | 74% | 1013.2 hPa | 0 mm | - | 3 W/m² | - |
| 1778070154 | 11.11° C | 73% | 1013.2 hPa | 0 mm | - | 1 W/m² | - |
| 1778069856 | 11.11° C | 73% | 1012.9 hPa | 0 mm | - | 0 W/m² | - |
* Rain latest hour (hover to see other rain measurements)
** Current wind speed in m/s (hover to see current wind gust speed)